sensor_id;sensor_type;location;lat;lon;timestamp;P1;durP1;ratioP1;P2;durP2;ratioP2
6007;SDS011;3032;49.484;11.112;2022-10-16T00:01:18;2.58;;;2.38;;
6007;SDS011;3032;49.484;11.112;2022-10-16T00:03:45;2.47;;;1.70;;
6007;SDS011;3032;49.484;11.112;2022-10-16T00:06:13;6.47;;;2.58;;
6007;SDS011;3032;49.484;11.112;2022-10-16T00:08:40;5.22;;;2.40;;
6007;SDS011;3032;49.484;11.112;2022-10-16T00:13:38;2.00;;;1.90;;
6007;SDS011;3032;49.484;11.112;2022-10-16T00:16:05;2.45;;;2.25;;
6007;SDS011;3032;49.484;11.112;2022-10-16T00:18:32;2.30;;;2.08;;
6007;SDS011;3032;49.484;11.112;2022-10-16T00:21:04;2.20;;;2.10;;
6007;SDS011;3032;49.484;11.112;2022-10-16T00:23:31;2.75;;;2.20;;
6007;SDS011;3032;49.484;11.112;2022-10-16T00:25:59;2.22;;;2.13;;
6007;SDS011;3032;49.484;11.112;2022-10-16T00:28:26;10.38;;;2.20;;
6007;SDS011;3032;49.484;11.112;2022-10-16T00:30:52;1.90;;;1.80;;
6007;SDS011;3032;49.484;11.112;2022-10-16T00:33:18;2.42;;;2.20;;
6007;SDS011;3032;49.484;11.112;2022-10-16T00:35:44;4.93;;;1.98;;
6007;SDS011;3032;49.484;11.112;2022-10-16T00:38:10;2.90;;;2.22;;
6007;SDS011;3032;49.484;11.112;2022-10-16T00:40:36;2.93;;;2.40;;
6007;SDS011;3032;49.484;11.112;2022-10-16T00:43:02;2.87;;;2.10;;
6007;SDS011;3032;49.484;11.112;2022-10-16T00:45:27;2.77;;;2.57;;
6007;SDS011;3032;49.484;11.112;2022-10-16T00:47:53;2.50;;;2.30;;
6007;SDS011;3032;49.484;11.112;2022-10-16T00:50:30;2.67;;;2.45;;
6007;SDS011;3032;49.484;11.112;2022-10-16T00:52:58;5.35;;;2.35;;
6007;SDS011;3032;49.484;11.112;2022-10-16T00:55:26;3.47;;;2.28;;
6007;SDS011;3032;49.484;11.112;2022-10-16T00:57:54;1.70;;;1.60;;
6007;SDS011;3032;49.484;11.112;2022-10-16T01:00:23;2.17;;;2.08;;
6007;SDS011;3032;49.484;11.112;2022-10-16T01:02:57;4.32;;;2.35;;
6007;SDS011;3032;49.484;11.112;2022-10-16T01:05:30;3.03;;;1.85;;
6007;SDS011;3032;49.484;11.112;2022-10-16T01:08:08;5.40;;;2.80;;
6007;SDS011;3032;49.484;11.112;2022-10-16T01:10:46;2.70;;;1.98;;
6007;SDS011;3032;49.484;11.112;2022-10-16T01:13:24;4.15;;;2.47;;
6007;SDS011;3032;49.484;11.112;2022-10-16T01:16:06;3.58;;;2.50;;
6007;SDS011;3032;49.484;11.112;2022-10-16T01:18:41;4.60;;;2.67;;
6007;SDS011;3032;49.484;11.112;2022-10-16T01:21:31;4.20;;;2.92;;
6007;SDS011;3032;49.484;11.112;2022-10-16T01:27:01;3.13;;;2.45;;
6007;SDS011;3032;49.484;11.112;2022-10-16T01:29:39;5.20;;;2.40;;
6007;SDS011;3032;49.484;11.112;2022-10-16T01:37:35;4.15;;;2.72;;
6007;SDS011;3032;49.484;11.112;2022-10-16T01:40:25;4.10;;;2.40;;
6007;SDS011;3032;49.484;11.112;2022-10-16T01:42:53;5.63;;;2.75;;
6007;SDS011;3032;49.484;11.112;2022-10-16T01:45:24;3.78;;;2.33;;
6007;SDS011;3032;49.484;11.112;2022-10-16T01:47:53;2.40;;;2.20;;
6007;SDS011;3032;49.484;11.112;2022-10-16T01:50:19;2.47;;;2.28;;
6007;SDS011;3032;49.484;11.112;2022-10-16T01:52:47;2.65;;;2.42;;
6007;SDS011;3032;49.484;11.112;2022-10-16T01:55:17;4.72;;;2.10;;
6007;SDS011;3032;49.484;11.112;2022-10-16T01:57:47;4.05;;;2.20;;
6007;SDS011;3032;49.484;11.112;2022-10-16T02:00:17;3.65;;;3.00;;
6007;SDS011;3032;49.484;11.112;2022-10-16T02:02:46;2.53;;;2.35;;
6007;SDS011;3032;49.484;11.112;2022-10-16T02:07:40;2.50;;;2.40;;
6007;SDS011;3032;49.484;11.112;2022-10-16T02:10:07;2.63;;;2.40;;
6007;SDS011;3032;49.484;11.112;2022-10-16T02:12:33;2.72;;;2.55;;
6007;SDS011;3032;49.484;11.112;2022-10-16T02:15:04;6.40;;;2.88;;
6007;SDS011;3032;49.484;11.112;2022-10-16T02:17:30;9.02;;;2.25;;
6007;SDS011;3032;49.484;11.112;2022-10-16T02:19:56;3.60;;;2.30;;
6007;SDS011;3032;49.484;11.112;2022-10-16T02:22:28;4.53;;;2.53;;
6007;SDS011;3032;49.484;11.112;2022-10-16T02:24:59;2.63;;;2.42;;
6007;SDS011;3032;49.484;11.112;2022-10-16T02:27:35;3.08;;;2.00;;
6007;SDS011;3032;49.484;11.112;2022-10-16T02:30:46;2.33;;;2.10;;
6007;SDS011;3032;49.484;11.112;2022-10-16T02:32:55;5.00;;;2.17;;
6007;SDS011;3032;49.484;11.112;2022-10-16T02:35:23;7.78;;;2.55;;
6007;SDS011;3032;49.484;11.112;2022-10-16T02:37:50;2.60;;;2.50;;
6007;SDS011;3032;49.484;11.112;2022-10-16T02:40:17;6.55;;;2.78;;
6007;SDS011;3032;49.484;11.112;2022-10-16T02:42:43;2.45;;;2.05;;
6007;SDS011;3032;49.484;11.112;2022-10-16T02:45:10;3.17;;;2.33;;
6007;SDS011;3032;49.484;11.112;2022-10-16T02:47:36;6.68;;;2.90;;
6007;SDS011;3032;49.484;11.112;2022-10-16T02:50:02;2.30;;;2.10;;
6007;SDS011;3032;49.484;11.112;2022-10-16T02:52:28;5.93;;;2.00;;
6007;SDS011;3032;49.484;11.112;2022-10-16T02:54:54;2.93;;;2.00;;
6007;SDS011;3032;49.484;11.112;2022-10-16T02:57:19;2.40;;;2.20;;
6007;SDS011;3032;49.484;11.112;2022-10-16T02:59:45;4.33;;;2.23;;
6007;SDS011;3032;49.484;11.112;2022-10-16T03:02:10;5.60;;;2.63;;
6007;SDS011;3032;49.484;11.112;2022-10-16T03:04:36;4.10;;;2.57;;
6007;SDS011;3032;49.484;11.112;2022-10-16T03:07:02;4.00;;;2.40;;
6007;SDS011;3032;49.484;11.112;2022-10-16T03:09:28;2.40;;;2.30;;
6007;SDS011;3032;49.484;11.112;2022-10-16T03:11:53;4.23;;;2.97;;
6007;SDS011;3032;49.484;11.112;2022-10-16T03:14:19;5.63;;;3.10;;
6007;SDS011;3032;49.484;11.112;2022-10-16T03:16:44;6.10;;;2.60;;
6007;SDS011;3032;49.484;11.112;2022-10-16T03:19:10;3.23;;;2.80;;
6007;SDS011;3032;49.484;11.112;2022-10-16T03:21:35;2.60;;;2.50;;
6007;SDS011;3032;49.484;11.112;2022-10-16T03:24:01;3.83;;;2.53;;
6007;SDS011;3032;49.484;11.112;2022-10-16T03:26:27;3.17;;;2.87;;
6007;SDS011;3032;49.484;11.112;2022-10-16T03:28:52;3.73;;;2.87;;
6007;SDS011;3032;49.484;11.112;2022-10-16T03:31:18;3.17;;;2.83;;
6007;SDS011;3032;49.484;11.112;2022-10-16T03:33:43;3.63;;;2.60;;
6007;SDS011;3032;49.484;11.112;2022-10-16T03:36:09;6.20;;;2.83;;
6007;SDS011;3032;49.484;11.112;2022-10-16T03:38:34;2.90;;;2.80;;
6007;SDS011;3032;49.484;11.112;2022-10-16T03:41:00;4.87;;;2.30;;
6007;SDS011;3032;49.484;11.112;2022-10-16T03:43:25;2.90;;;2.70;;
6007;SDS011;3032;49.484;11.112;2022-10-16T03:45:51;2.77;;;2.63;;
6007;SDS011;3032;49.484;11.112;2022-10-16T03:48:17;3.83;;;2.70;;
6007;SDS011;3032;49.484;11.112;2022-10-16T03:50:43;6.05;;;2.50;;
6007;SDS011;3032;49.484;11.112;2022-10-16T03:53:09;3.00;;;2.70;;
6007;SDS011;3032;49.484;11.112;2022-10-16T03:55:35;2.90;;;2.70;;
6007;SDS011;3032;49.484;11.112;2022-10-16T03:58:00;2.63;;;2.53;;
6007;SDS011;3032;49.484;11.112;2022-10-16T04:00:26;2.83;;;2.70;;
6007;SDS011;3032;49.484;11.112;2022-10-16T04:02:52;2.40;;;2.20;;
6007;SDS011;3032;49.484;11.112;2022-10-16T04:05:18;7.23;;;3.50;;
6007;SDS011;3032;49.484;11.112;2022-10-16T04:07:44;2.70;;;2.50;;
6007;SDS011;3032;49.484;11.112;2022-10-16T04:10:09;4.53;;;2.83;;
6007;SDS011;3032;49.484;11.112;2022-10-16T04:12:35;4.07;;;2.80;;
6007;SDS011;3032;49.484;11.112;2022-10-16T04:15:01;5.60;;;2.47;;
6007;SDS011;3032;49.484;11.112;2022-10-16T04:17:27;3.00;;;2.80;;
6007;SDS011;3032;49.484;11.112;2022-10-16T04:19:52;3.77;;;3.47;;
6007;SDS011;3032;49.484;11.112;2022-10-16T04:22:18;4.10;;;2.40;;
6007;SDS011;3032;49.484;11.112;2022-10-16T04:24:43;3.37;;;2.70;;
6007;SDS011;3032;49.484;11.112;2022-10-16T04:27:09;3.33;;;2.97;;
6007;SDS011;3032;49.484;11.112;2022-10-16T04:29:34;3.03;;;2.83;;
6007;SDS011;3032;49.484;11.112;2022-10-16T04:32:00;3.13;;;2.87;;
6007;SDS011;3032;49.484;11.112;2022-10-16T04:34:25;4.73;;;2.60;;
6007;SDS011;3032;49.484;11.112;2022-10-16T04:36:51;3.13;;;2.73;;
6007;SDS011;3032;49.484;11.112;2022-10-16T04:39:16;3.10;;;2.73;;
6007;SDS011;3032;49.484;11.112;2022-10-16T04:41:42;5.33;;;2.60;;
6007;SDS011;3032;49.484;11.112;2022-10-16T04:44:08;3.13;;;2.70;;
6007;SDS011;3032;49.484;11.112;2022-10-16T04:46:34;2.43;;;2.33;;
6007;SDS011;3032;49.484;11.112;2022-10-16T04:48:59;3.40;;;3.10;;
6007;SDS011;3032;49.484;11.112;2022-10-16T04:51:25;4.60;;;2.47;;
6007;SDS011;3032;49.484;11.112;2022-10-16T04:53:52;2.85;;;2.60;;
6007;SDS011;3032;49.484;11.112;2022-10-16T04:56:19;5.07;;;2.67;;
6007;SDS011;3032;49.484;11.112;2022-10-16T04:58:45;5.80;;;2.47;;
6007;SDS011;3032;49.484;11.112;2022-10-16T05:01:11;3.37;;;3.27;;
6007;SDS011;3032;49.484;11.112;2022-10-16T05:03:37;2.67;;;2.47;;
6007;SDS011;3032;49.484;11.112;2022-10-16T05:06:04;2.97;;;2.87;;
6007;SDS011;3032;49.484;11.112;2022-10-16T05:08:30;3.65;;;2.70;;
6007;SDS011;3032;49.484;11.112;2022-10-16T05:10:56;9.63;;;2.93;;
6007;SDS011;3032;49.484;11.112;2022-10-16T05:13:21;3.83;;;2.70;;
6007;SDS011;3032;49.484;11.112;2022-10-16T05:15:48;3.22;;;2.90;;
6007;SDS011;3032;49.484;11.112;2022-10-16T05:18:14;3.50;;;2.50;;
6007;SDS011;3032;49.484;11.112;2022-10-16T05:20:40;2.88;;;2.78;;
6007;SDS011;3032;49.484;11.112;2022-10-16T05:23:06;3.08;;;2.88;;
6007;SDS011;3032;49.484;11.112;2022-10-16T05:25:32;2.70;;;2.10;;
6007;SDS011;3032;49.484;11.112;2022-10-16T05:27:58;3.03;;;2.73;;
6007;SDS011;3032;49.484;11.112;2022-10-16T05:30:23;3.10;;;2.80;;
6007;SDS011;3032;49.484;11.112;2022-10-16T05:32:49;7.03;;;2.27;;
6007;SDS011;3032;49.484;11.112;2022-10-16T05:35:16;3.28;;;2.97;;
6007;SDS011;3032;49.484;11.112;2022-10-16T05:37:43;3.90;;;2.42;;
6007;SDS011;3032;49.484;11.112;2022-10-16T05:40:09;4.47;;;2.60;;
6007;SDS011;3032;49.484;11.112;2022-10-16T05:42:35;3.42;;;2.42;;
6007;SDS011;3032;49.484;11.112;2022-10-16T05:45:01;3.03;;;2.80;;
6007;SDS011;3032;49.484;11.112;2022-10-16T05:47:26;5.80;;;3.27;;
6007;SDS011;3032;49.484;11.112;2022-10-16T05:49:52;3.33;;;2.90;;
6007;SDS011;3032;49.484;11.112;2022-10-16T05:52:18;7.67;;;3.90;;
6007;SDS011;3032;49.484;11.112;2022-10-16T05:54:43;4.37;;;2.97;;
6007;SDS011;3032;49.484;11.112;2022-10-16T05:57:09;2.50;;;2.30;;
6007;SDS011;3032;49.484;11.112;2022-10-16T05:59:34;6.10;;;3.20;;
6007;SDS011;3032;49.484;11.112;2022-10-16T06:02:00;3.10;;;2.90;;
6007;SDS011;3032;49.484;11.112;2022-10-16T06:04:25;6.73;;;2.80;;
6007;SDS011;3032;49.484;11.112;2022-10-16T06:06:51;3.53;;;3.20;;
6007;SDS011;3032;49.484;11.112;2022-10-16T06:09:16;2.83;;;2.50;;
6007;SDS011;3032;49.484;11.112;2022-10-16T06:11:42;2.90;;;2.60;;
6007;SDS011;3032;49.484;11.112;2022-10-16T06:14:08;2.30;;;2.20;;
6007;SDS011;3032;49.484;11.112;2022-10-16T06:16:35;4.78;;;3.30;;
6007;SDS011;3032;49.484;11.112;2022-10-16T06:19:02;5.40;;;2.70;;
6007;SDS011;3032;49.484;11.112;2022-10-16T06:21:31;3.55;;;2.67;;
6007;SDS011;3032;49.484;11.112;2022-10-16T06:23:57;2.97;;;2.60;;
6007;SDS011;3032;49.484;11.112;2022-10-16T06:26:24;4.53;;;2.25;;
6007;SDS011;3032;49.484;11.112;2022-10-16T06:28:53;4.38;;;2.40;;
6007;SDS011;3032;49.484;11.112;2022-10-16T06:31:20;2.75;;;2.55;;
6007;SDS011;3032;49.484;11.112;2022-10-16T06:33:49;2.78;;;2.65;;
6007;SDS011;3032;49.484;11.112;2022-10-16T06:36:16;3.13;;;2.80;;
6007;SDS011;3032;49.484;11.112;2022-10-16T06:38:42;4.53;;;2.85;;
6007;SDS011;3032;49.484;11.112;2022-10-16T06:41:12;2.63;;;2.20;;
6007;SDS011;3032;49.484;11.112;2022-10-16T06:43:40;2.30;;;2.20;;
6007;SDS011;3032;49.484;11.112;2022-10-16T06:46:06;3.00;;;1.60;;
6007;SDS011;3032;49.484;11.112;2022-10-16T06:48:33;2.10;;;1.65;;
6007;SDS011;3032;49.484;11.112;2022-10-16T06:51:00;2.73;;;1.40;;
6007;SDS011;3032;49.484;11.112;2022-10-16T06:53:30;1.83;;;1.70;;
6007;SDS011;3032;49.484;11.112;2022-10-16T06:55:57;2.80;;;1.88;;
6007;SDS011;3032;49.484;11.112;2022-10-16T06:58:30;4.55;;;2.10;;
6007;SDS011;3032;49.484;11.112;2022-10-16T07:00:56;3.47;;;1.77;;
6007;SDS011;3032;49.484;11.112;2022-10-16T07:03:22;4.17;;;1.70;;
6007;SDS011;3032;49.484;11.112;2022-10-16T07:05:47;3.37;;;1.70;;
6007;SDS011;3032;49.484;11.112;2022-10-16T07:08:13;1.93;;;1.77;;
6007;SDS011;3032;49.484;11.112;2022-10-16T07:10:39;4.53;;;2.10;;
6007;SDS011;3032;49.484;11.112;2022-10-16T07:13:04;4.80;;;2.03;;
6007;SDS011;3032;49.484;11.112;2022-10-16T07:15:32;3.33;;;1.95;;
6007;SDS011;3032;49.484;11.112;2022-10-16T07:17:58;3.17;;;2.43;;
6007;SDS011;3032;49.484;11.112;2022-10-16T07:20:23;1.90;;;1.80;;
6007;SDS011;3032;49.484;11.112;2022-10-16T07:22:49;2.17;;;1.97;;
6007;SDS011;3032;49.484;11.112;2022-10-16T07:25:14;6.33;;;2.80;;
6007;SDS011;3032;49.484;11.112;2022-10-16T07:27:40;2.40;;;2.20;;
6007;SDS011;3032;49.484;11.112;2022-10-16T07:30:05;4.10;;;2.40;;
6007;SDS011;3032;49.484;11.112;2022-10-16T07:32:31;3.83;;;2.10;;
6007;SDS011;3032;49.484;11.112;2022-10-16T07:34:57;2.77;;;2.40;;
6007;SDS011;3032;49.484;11.112;2022-10-16T07:37:22;2.37;;;2.17;;
6007;SDS011;3032;49.484;11.112;2022-10-16T07:39:48;2.20;;;2.00;;
6007;SDS011;3032;49.484;11.112;2022-10-16T07:42:14;3.27;;;2.10;;
6007;SDS011;3032;49.484;11.112;2022-10-16T07:44:39;2.20;;;2.10;;
6007;SDS011;3032;49.484;11.112;2022-10-16T07:47:05;2.33;;;2.23;;
6007;SDS011;3032;49.484;11.112;2022-10-16T07:49:31;2.87;;;2.27;;
6007;SDS011;3032;49.484;11.112;2022-10-16T07:51:57;2.40;;;2.20;;
6007;SDS011;3032;49.484;11.112;2022-10-16T07:54:22;2.60;;;2.27;;
6007;SDS011;3032;49.484;11.112;2022-10-16T07:56:48;3.67;;;2.30;;
6007;SDS011;3032;49.484;11.112;2022-10-16T07:59:13;3.67;;;2.00;;
6007;SDS011;3032;49.484;11.112;2022-10-16T08:01:39;3.13;;;2.07;;
6007;SDS011;3032;49.484;11.112;2022-10-16T08:04:07;2.28;;;2.17;;
6007;SDS011;3032;49.484;11.112;2022-10-16T08:06:34;2.67;;;2.10;;
6007;SDS011;3032;49.484;11.112;2022-10-16T08:09:02;2.75;;;2.20;;
6007;SDS011;3032;49.484;11.112;2022-10-16T08:11:27;4.80;;;2.60;;
6007;SDS011;3032;49.484;11.112;2022-10-16T08:13:53;6.23;;;2.37;;
6007;SDS011;3032;49.484;11.112;2022-10-16T08:16:18;4.93;;;2.03;;
6007;SDS011;3032;49.484;11.112;2022-10-16T08:18:44;2.63;;;2.43;;
6007;SDS011;3032;49.484;11.112;2022-10-16T08:21:14;2.45;;;2.05;;
6007;SDS011;3032;49.484;11.112;2022-10-16T08:23:41;4.45;;;2.42;;
6007;SDS011;3032;49.484;11.112;2022-10-16T08:26:07;4.93;;;2.63;;
6007;SDS011;3032;49.484;11.112;2022-10-16T08:28:34;3.58;;;2.22;;
6007;SDS011;3032;49.484;11.112;2022-10-16T08:31:10;5.97;;;2.55;;
6007;SDS011;3032;49.484;11.112;2022-10-16T08:33:40;2.83;;;2.55;;
6007;SDS011;3032;49.484;11.112;2022-10-16T08:36:06;2.65;;;2.10;;
6007;SDS011;3032;49.484;11.112;2022-10-16T08:38:33;2.53;;;2.33;;
6007;SDS011;3032;49.484;11.112;2022-10-16T08:49:43;6.80;;;2.30;;
6007;SDS011;3032;49.484;11.112;2022-10-16T08:52:24;2.50;;;2.40;;
6007;SDS011;3032;49.484;11.112;2022-10-16T08:54:54;2.78;;;2.47;;
6007;SDS011;3032;49.484;11.112;2022-10-16T08:57:21;2.30;;;2.20;;
6007;SDS011;3032;49.484;11.112;2022-10-16T08:59:48;3.95;;;2.60;;
6007;SDS011;3032;49.484;11.112;2022-10-16T09:07:45;3.65;;;1.80;;
6007;SDS011;3032;49.484;11.112;2022-10-16T09:10:18;7.20;;;2.30;;
6007;SDS011;3032;49.484;11.112;2022-10-16T09:12:52;2.35;;;2.08;;
6007;SDS011;3032;49.484;11.112;2022-10-16T09:15:30;2.75;;;2.20;;
6007;SDS011;3032;49.484;11.112;2022-10-16T09:18:06;1.95;;;1.65;;
6007;SDS011;3032;49.484;11.112;2022-10-16T09:23:28;6.03;;;2.30;;
6007;SDS011;3032;49.484;11.112;2022-10-16T09:25:55;2.60;;;1.77;;
6007;SDS011;3032;49.484;11.112;2022-10-16T09:28:23;2.95;;;2.10;;
6007;SDS011;3032;49.484;11.112;2022-10-16T09:30:49;2.33;;;1.98;;
6007;SDS011;3032;49.484;11.112;2022-10-16T09:33:15;2.00;;;1.90;;
6007;SDS011;3032;49.484;11.112;2022-10-16T09:35:44;2.35;;;2.15;;
6007;SDS011;3032;49.484;11.112;2022-10-16T09:38:28;2.22;;;1.70;;
6007;SDS011;3032;49.484;11.112;2022-10-16T09:40:56;2.60;;;2.08;;
6007;SDS011;3032;49.484;11.112;2022-10-16T09:46:02;1.90;;;1.80;;
6007;SDS011;3032;49.484;11.112;2022-10-16T09:48:47;2.03;;;1.80;;
6007;SDS011;3032;49.484;11.112;2022-10-16T09:51:24;2.15;;;2.00;;
6007;SDS011;3032;49.484;11.112;2022-10-16T09:53:54;2.92;;;2.08;;
6007;SDS011;3032;49.484;11.112;2022-10-16T09:56:23;2.92;;;1.63;;
6007;SDS011;3032;49.484;11.112;2022-10-16T09:58:52;1.90;;;1.80;;
6007;SDS011;3032;49.484;11.112;2022-10-16T10:01:19;3.67;;;1.85;;
6007;SDS011;3032;49.484;11.112;2022-10-16T10:03:45;2.00;;;1.83;;
6007;SDS011;3032;49.484;11.112;2022-10-16T10:09:05;2.28;;;1.92;;
6007;SDS011;3032;49.484;11.112;2022-10-16T10:14:21;5.82;;;2.10;;
6007;SDS011;3032;49.484;11.112;2022-10-16T10:16:47;3.35;;;1.77;;
6007;SDS011;3032;49.484;11.112;2022-10-16T10:19:21;1.60;;;1.50;;
6007;SDS011;3032;49.484;11.112;2022-10-16T10:21:49;3.08;;;1.60;;
6007;SDS011;3032;49.484;11.112;2022-10-16T10:24:17;5.68;;;1.73;;
6007;SDS011;3032;49.484;11.112;2022-10-16T10:29:56;3.20;;;2.47;;
6007;SDS011;3032;49.484;11.112;2022-10-16T10:35:28;1.95;;;1.83;;
6007;SDS011;3032;49.484;11.112;2022-10-16T10:38:09;2.25;;;1.40;;
6007;SDS011;3032;49.484;11.112;2022-10-16T10:43:47;3.53;;;2.00;;
6007;SDS011;3032;49.484;11.112;2022-10-16T10:46:39;1.85;;;1.70;;
6007;SDS011;3032;49.484;11.112;2022-10-16T10:55:14;2.55;;;1.90;;
6007;SDS011;3032;49.484;11.112;2022-10-16T10:58:05;6.05;;;2.00;;
6007;SDS011;3032;49.484;11.112;2022-10-16T11:01:09;3.95;;;1.92;;
6007;SDS011;3032;49.484;11.112;2022-10-16T11:06:29;3.83;;;1.77;;
6007;SDS011;3032;49.484;11.112;2022-10-16T11:09:15;2.55;;;1.90;;
6007;SDS011;3032;49.484;11.112;2022-10-16T11:14:29;4.03;;;2.17;;
6007;SDS011;3032;49.484;11.112;2022-10-16T11:17:13;2.08;;;1.85;;
6007;SDS011;3032;49.484;11.112;2022-10-16T11:23:06;2.88;;;1.80;;
6007;SDS011;3032;49.484;11.112;2022-10-16T11:25:32;2.08;;;1.65;;
6007;SDS011;3032;49.484;11.112;2022-10-16T11:28:11;1.75;;;1.65;;
6007;SDS011;3032;49.484;11.112;2022-10-16T11:35:53;3.15;;;1.98;;
6007;SDS011;3032;49.484;11.112;2022-10-16T11:41:27;2.40;;;2.20;;
6007;SDS011;3032;49.484;11.112;2022-10-16T11:46:53;3.78;;;2.00;;
6007;SDS011;3032;49.484;11.112;2022-10-16T11:49:26;2.40;;;1.95;;
6007;SDS011;3032;49.484;11.112;2022-10-16T11:51:59;2.28;;;1.80;;
6007;SDS011;3032;49.484;11.112;2022-10-16T11:54:42;4.35;;;1.88;;
6007;SDS011;3032;49.484;11.112;2022-10-16T11:57:28;3.25;;;1.95;;
6007;SDS011;3032;49.484;11.112;2022-10-16T12:00:14;5.80;;;2.00;;
6007;SDS011;3032;49.484;11.112;2022-10-16T12:02:55;2.78;;;1.83;;
6007;SDS011;3032;49.484;11.112;2022-10-16T12:08:19;9.23;;;2.25;;
6007;SDS011;3032;49.484;11.112;2022-10-16T12:10:45;4.60;;;1.93;;
6007;SDS011;3032;49.484;11.112;2022-10-16T12:16:07;2.00;;;1.90;;
6007;SDS011;3032;49.484;11.112;2022-10-16T12:18:45;4.15;;;2.17;;
6007;SDS011;3032;49.484;11.112;2022-10-16T12:21:15;4.22;;;2.22;;
6007;SDS011;3032;49.484;11.112;2022-10-16T12:23:53;2.65;;;2.13;;
6007;SDS011;3032;49.484;11.112;2022-10-16T12:26:33;1.90;;;1.80;;
6007;SDS011;3032;49.484;11.112;2022-10-16T12:31:46;6.40;;;2.28;;
6007;SDS011;3032;49.484;11.112;2022-10-16T12:34:25;3.50;;;2.20;;
6007;SDS011;3032;49.484;11.112;2022-10-16T12:37:08;1.88;;;1.77;;
6007;SDS011;3032;49.484;11.112;2022-10-16T12:39:46;4.68;;;2.25;;
6007;SDS011;3032;49.484;11.112;2022-10-16T12:44:50;6.82;;;2.05;;
6007;SDS011;3032;49.484;11.112;2022-10-16T12:47:20;4.60;;;2.10;;
6007;SDS011;3032;49.484;11.112;2022-10-16T12:49:48;2.97;;;2.10;;
6007;SDS011;3032;49.484;11.112;2022-10-16T12:52:26;3.60;;;1.95;;
6007;SDS011;3032;49.484;11.112;2022-10-16T12:55:02;2.03;;;1.77;;
6007;SDS011;3032;49.484;11.112;2022-10-16T13:00:24;1.95;;;1.85;;
6007;SDS011;3032;49.484;11.112;2022-10-16T13:17:01;7.88;;;2.00;;
6007;SDS011;3032;49.484;11.112;2022-10-16T13:28:10;1.90;;;1.80;;
6007;SDS011;3032;49.484;11.112;2022-10-16T13:30:44;2.75;;;1.90;;
6007;SDS011;3032;49.484;11.112;2022-10-16T13:33:23;2.20;;;1.98;;
6007;SDS011;3032;49.484;11.112;2022-10-16T13:36:17;5.13;;;2.10;;
6007;SDS011;3032;49.484;11.112;2022-10-16T13:38:47;4.05;;;2.22;;
6007;SDS011;3032;49.484;11.112;2022-10-16T13:41:14;8.63;;;3.00;;
6007;SDS011;3032;49.484;11.112;2022-10-16T13:44:00;4.57;;;3.72;;
6007;SDS011;3032;49.484;11.112;2022-10-16T13:46:25;7.00;;;4.00;;
6007;SDS011;3032;49.484;11.112;2022-10-16T13:51:24;2.00;;;1.90;;
6007;SDS011;3032;49.484;11.112;2022-10-16T13:53:51;3.42;;;1.52;;
6007;SDS011;3032;49.484;11.112;2022-10-16T13:56:18;2.83;;;1.77;;
6007;SDS011;3032;49.484;11.112;2022-10-16T13:58:46;1.70;;;1.60;;
6007;SDS011;3032;49.484;11.112;2022-10-16T14:01:23;3.80;;;1.75;;
6007;SDS011;3032;49.484;11.112;2022-10-16T14:03:52;3.17;;;2.10;;
6007;SDS011;3032;49.484;11.112;2022-10-16T14:06:19;1.70;;;1.60;;
6007;SDS011;3032;49.484;11.112;2022-10-16T14:08:49;2.83;;;1.55;;
6007;SDS011;3032;49.484;11.112;2022-10-16T14:11:22;2.00;;;1.90;;
6007;SDS011;3032;49.484;11.112;2022-10-16T14:13:48;2.95;;;2.10;;
6007;SDS011;3032;49.484;11.112;2022-10-16T14:16:16;1.90;;;1.80;;
6007;SDS011;3032;49.484;11.112;2022-10-16T14:18:45;3.83;;;1.85;;
6007;SDS011;3032;49.484;11.112;2022-10-16T14:21:17;3.30;;;1.50;;
6007;SDS011;3032;49.484;11.112;2022-10-16T14:23:43;5.30;;;1.77;;
6007;SDS011;3032;49.484;11.112;2022-10-16T14:28:35;1.93;;;1.83;;
6007;SDS011;3032;49.484;11.112;2022-10-16T14:31:02;2.08;;;1.80;;
6007;SDS011;3032;49.484;11.112;2022-10-16T14:33:57;3.35;;;1.75;;
6007;SDS011;3032;49.484;11.112;2022-10-16T14:36:23;2.17;;;1.73;;
6007;SDS011;3032;49.484;11.112;2022-10-16T14:41:30;2.55;;;2.30;;
6007;SDS011;3032;49.484;11.112;2022-10-16T14:44:00;3.90;;;1.88;;
6007;SDS011;3032;49.484;11.112;2022-10-16T14:46:30;1.73;;;1.63;;
6007;SDS011;3032;49.484;11.112;2022-10-16T14:49:03;3.22;;;1.80;;
6007;SDS011;3032;49.484;11.112;2022-10-16T14:51:38;4.13;;;1.60;;
6007;SDS011;3032;49.484;11.112;2022-10-16T14:54:10;1.80;;;1.70;;
6007;SDS011;3032;49.484;11.112;2022-10-16T15:01:53;5.25;;;1.70;;
6007;SDS011;3032;49.484;11.112;2022-10-16T15:04:19;5.37;;;1.67;;
6007;SDS011;3032;49.484;11.112;2022-10-16T15:06:44;4.13;;;1.80;;
6007;SDS011;3032;49.484;11.112;2022-10-16T15:09:10;11.00;;;1.80;;
6007;SDS011;3032;49.484;11.112;2022-10-16T15:11:36;2.07;;;1.77;;
6007;SDS011;3032;49.484;11.112;2022-10-16T15:14:02;1.70;;;1.60;;
6007;SDS011;3032;49.484;11.112;2022-10-16T15:16:28;4.72;;;1.70;;
6007;SDS011;3032;49.484;11.112;2022-10-16T15:18:54;2.00;;;1.80;;
6007;SDS011;3032;49.484;11.112;2022-10-16T15:21:24;3.83;;;1.87;;
6007;SDS011;3032;49.484;11.112;2022-10-16T15:23:52;2.47;;;2.00;;
6007;SDS011;3032;49.484;11.112;2022-10-16T15:26:17;4.43;;;1.80;;
6007;SDS011;3032;49.484;11.112;2022-10-16T15:28:43;2.27;;;1.90;;
6007;SDS011;3032;49.484;11.112;2022-10-16T15:31:09;3.10;;;1.90;;
6007;SDS011;3032;49.484;11.112;2022-10-16T15:33:34;3.03;;;1.77;;
6007;SDS011;3032;49.484;11.112;2022-10-16T15:36:00;5.43;;;1.70;;
6007;SDS011;3032;49.484;11.112;2022-10-16T15:38:27;2.65;;;1.70;;
6007;SDS011;3032;49.484;11.112;2022-10-16T15:40:54;5.45;;;2.08;;
6007;SDS011;3032;49.484;11.112;2022-10-16T15:43:20;3.88;;;1.75;;
6007;SDS011;3032;49.484;11.112;2022-10-16T15:46:02;2.80;;;2.20;;
6007;SDS011;3032;49.484;11.112;2022-10-16T15:48:30;8.10;;;3.25;;
6007;SDS011;3032;49.484;11.112;2022-10-16T15:50:56;3.35;;;3.05;;
6007;SDS011;3032;49.484;11.112;2022-10-16T15:53:22;3.90;;;3.60;;
6007;SDS011;3032;49.484;11.112;2022-10-16T15:55:47;8.20;;;5.87;;
6007;SDS011;3032;49.484;11.112;2022-10-16T15:58:14;4.68;;;3.97;;
6007;SDS011;3032;49.484;11.112;2022-10-16T16:00:39;13.53;;;10.90;;
6007;SDS011;3032;49.484;11.112;2022-10-16T16:03:05;8.63;;;5.80;;
6007;SDS011;3032;49.484;11.112;2022-10-16T16:05:30;4.20;;;3.30;;
6007;SDS011;3032;49.484;11.112;2022-10-16T16:07:58;2.50;;;2.33;;
6007;SDS011;3032;49.484;11.112;2022-10-16T16:10:24;4.50;;;4.10;;
6007;SDS011;3032;49.484;11.112;2022-10-16T16:12:49;2.83;;;2.40;;
6007;SDS011;3032;49.484;11.112;2022-10-16T16:15:17;2.58;;;2.00;;
6007;SDS011;3032;49.484;11.112;2022-10-16T16:17:44;3.47;;;1.85;;
6007;SDS011;3032;49.484;11.112;2022-10-16T16:20:10;3.80;;;2.20;;
6007;SDS011;3032;49.484;11.112;2022-10-16T16:22:36;2.80;;;2.00;;
6007;SDS011;3032;49.484;11.112;2022-10-16T16:25:02;4.43;;;2.07;;
6007;SDS011;3032;49.484;11.112;2022-10-16T16:27:27;3.22;;;3.03;;
6007;SDS011;3032;49.484;11.112;2022-10-16T16:29:54;16.70;;;9.10;;
6007;SDS011;3032;49.484;11.112;2022-10-16T16:32:20;3.70;;;3.00;;
6007;SDS011;3032;49.484;11.112;2022-10-16T16:34:46;6.57;;;4.40;;
6007;SDS011;3032;49.484;11.112;2022-10-16T16:37:12;11.00;;;6.20;;
6007;SDS011;3032;49.484;11.112;2022-10-16T16:39:38;15.97;;;8.53;;
6007;SDS011;3032;49.484;11.112;2022-10-16T16:42:03;6.33;;;5.50;;
6007;SDS011;3032;49.484;11.112;2022-10-16T16:44:31;8.05;;;6.18;;
6007;SDS011;3032;49.484;11.112;2022-10-16T16:46:57;10.20;;;6.60;;
6007;SDS011;3032;49.484;11.112;2022-10-16T16:49:22;12.83;;;9.00;;
6007;SDS011;3032;49.484;11.112;2022-10-16T16:51:48;8.90;;;7.30;;
6007;SDS011;3032;49.484;11.112;2022-10-16T16:54:14;31.23;;;20.77;;
6007;SDS011;3032;49.484;11.112;2022-10-16T16:56:39;22.30;;;15.20;;
6007;SDS011;3032;49.484;11.112;2022-10-16T16:59:15;21.08;;;13.95;;
6007;SDS011;3032;49.484;11.112;2022-10-16T17:01:42;9.68;;;5.70;;
6007;SDS011;3032;49.484;11.112;2022-10-16T17:04:08;6.37;;;5.07;;
6007;SDS011;3032;49.484;11.112;2022-10-16T17:06:35;5.45;;;4.95;;
6007;SDS011;3032;49.484;11.112;2022-10-16T17:09:02;10.82;;;8.38;;
6007;SDS011;3032;49.484;11.112;2022-10-16T17:11:29;27.80;;;20.67;;
6007;SDS011;3032;49.484;11.112;2022-10-16T17:13:55;12.18;;;6.70;;